createdAt,value
2022-12-03T00:02:14.491Z,8.43
2022-12-03T00:04:40.959Z,8.98
2022-12-03T00:07:07.326Z,8.77
2022-12-03T00:09:33.727Z,8.68
2022-12-03T00:12:00.117Z,8.60
2022-12-03T00:14:26.536Z,8.65
2022-12-03T00:16:52.901Z,8.15
2022-12-03T00:19:19.361Z,8.90
2022-12-03T00:21:45.761Z,9.55
2022-12-03T00:24:12.156Z,8.63
2022-12-03T00:26:38.584Z,9.50
2022-12-03T00:29:05.073Z,9.52
2022-12-03T00:31:31.502Z,9.82
2022-12-03T00:33:57.978Z,9.05
2022-12-03T00:36:24.419Z,8.93
2022-12-03T00:38:50.813Z,9.48
2022-12-03T00:41:17.201Z,9.00
2022-12-03T00:43:43.623Z,8.27
2022-12-03T00:46:10.051Z,8.55
2022-12-03T00:48:36.541Z,8.77
2022-12-03T00:51:02.944Z,8.15
2022-12-03T00:53:29.622Z,8.90
2022-12-03T00:55:56.099Z,9.10
2022-12-03T00:58:22.538Z,9.80
2022-12-03T01:00:48.954Z,8.13
2022-12-03T01:03:15.340Z,9.15
2022-12-03T01:05:41.695Z,10.40
2022-12-03T01:08:08.099Z,9.40
2022-12-03T01:10:34.536Z,9.30
2022-12-03T01:13:00.924Z,9.07
2022-12-03T01:15:27.381Z,9.75
2022-12-03T01:17:54.395Z,8.65
2022-12-03T01:20:20.933Z,8.98
2022-12-03T01:22:47.466Z,10.13
2022-12-03T01:25:13.904Z,9.13
2022-12-03T01:27:40.261Z,7.70
2022-12-03T01:30:07.568Z,9.55
2022-12-03T01:32:33.967Z,8.10
2022-12-03T01:35:00.399Z,10.15
2022-12-03T01:37:27.401Z,9.17
2022-12-03T01:39:54.180Z,9.48
2022-12-03T01:42:26.387Z,8.40
2022-12-03T01:44:55.786Z,9.10
2022-12-03T01:47:27.320Z,9.50
2022-12-03T01:50:01.732Z,10.47
2022-12-03T01:52:31.951Z,8.98
2022-12-03T01:55:00.534Z,10.98
2022-12-03T01:57:40.531Z,8.60
2022-12-03T02:00:08.097Z,8.90
2022-12-03T02:02:34.846Z,9.50
2022-12-03T02:05:01.484Z,9.13
2022-12-03T02:07:30.318Z,7.95
2022-12-03T02:09:59.426Z,8.93
2022-12-03T02:12:35.105Z,8.52
2022-12-03T02:15:02.031Z,8.37
2022-12-03T02:17:28.837Z,8.80
2022-12-03T02:19:56.063Z,9.07
2022-12-03T02:22:26.967Z,8.85
2022-12-03T02:25:04.787Z,9.55
2022-12-03T02:27:31.220Z,10.10
2022-12-03T02:29:57.729Z,9.77
2022-12-03T02:32:24.263Z,9.82
2022-12-03T02:34:51.868Z,9.63
2022-12-03T02:37:24.040Z,8.90
2022-12-03T02:39:55.422Z,8.40
2022-12-03T02:42:37.970Z,8.43
2022-12-03T02:45:19.602Z,9.40
2022-12-03T02:47:50.447Z,8.13
2022-12-03T02:50:21.988Z,9.30
2022-12-03T02:52:49.311Z,8.80
2022-12-03T02:55:17.814Z,8.73
2022-12-03T02:57:48.171Z,9.60
2022-12-03T03:00:16.395Z,9.73
2022-12-03T03:02:44.607Z,9.18
2022-12-03T03:05:12.237Z,8.60
2022-12-03T03:07:40.359Z,8.40
2022-12-03T03:10:09.290Z,10.48
2022-12-03T03:12:39.208Z,8.02
2022-12-03T03:15:07.665Z,8.43
2022-12-03T03:17:35.318Z,7.33
2022-12-03T03:20:03.181Z,8.25
2022-12-03T03:22:33.076Z,8.95
2022-12-03T03:24:59.641Z,8.88
2022-12-03T03:27:27.016Z,9.52
2022-12-03T03:29:53.807Z,9.27
2022-12-03T03:32:20.602Z,8.93
2022-12-03T03:34:47.300Z,9.13
2022-12-03T03:37:13.767Z,9.07
2022-12-03T03:39:40.257Z,9.15
2022-12-03T03:42:06.694Z,9.13
2022-12-03T03:44:33.416Z,9.32
2022-12-03T03:47:00.011Z,9.02
2022-12-03T03:49:27.253Z,8.52
2022-12-03T03:51:54.217Z,8.60
2022-12-03T03:54:21.533Z,9.27
2022-12-03T03:56:48.127Z,10.07
2022-12-03T03:59:15.171Z,8.88
2022-12-03T04:01:43.680Z,9.90
2022-12-03T04:04:19.833Z,10.20
2022-12-03T04:06:47.194Z,9.33
2022-12-03T04:09:13.592Z,8.77
2022-12-03T04:11:58.315Z,9.00
2022-12-03T04:14:24.952Z,9.60
2022-12-03T04:16:51.467Z,9.52
2022-12-03T04:19:17.957Z,8.80
2022-12-03T04:22:02.784Z,10.32
2022-12-03T04:24:29.151Z,8.68
2022-12-03T04:27:14.249Z,10.95
2022-12-03T04:29:40.689Z,10.15
2022-12-03T04:32:25.454Z,9.97
2022-12-03T04:35:10.423Z,9.85
2022-12-03T04:37:36.824Z,10.02
2022-12-03T04:40:23.917Z,9.40
2022-12-03T04:42:50.266Z,10.13
2022-12-03T04:45:16.837Z,9.43
2022-12-03T04:47:43.357Z,10.07
2022-12-03T04:50:10.308Z,9.32
2022-12-03T04:52:36.858Z,10.80
2022-12-03T04:55:03.635Z,9.82
2022-12-03T04:57:30.020Z,10.43
2022-12-03T04:59:56.394Z,10.45
2022-12-03T05:02:22.856Z,10.15
2022-12-03T05:04:49.335Z,9.95
2022-12-03T05:07:15.743Z,10.63
2022-12-03T05:09:42.121Z,9.63
2022-12-03T05:12:08.768Z,9.88
2022-12-03T05:14:35.252Z,10.75
2022-12-03T05:17:01.676Z,9.43
2022-12-03T05:19:48.101Z,9.05
2022-12-03T05:22:14.524Z,11.00
2022-12-03T05:24:40.929Z,9.52
2022-12-03T05:27:07.325Z,9.90
2022-12-03T05:29:33.723Z,10.77
2022-12-03T05:32:00.138Z,11.23
2022-12-03T05:34:26.646Z,11.07
2022-12-03T05:36:53.033Z,11.63
2022-12-03T05:39:19.422Z,11.27
2022-12-03T05:42:04.960Z,11.40
2022-12-03T05:44:31.760Z,11.63
2022-12-03T05:46:58.152Z,13.07
2022-12-03T05:49:24.573Z,11.43
2022-12-03T05:51:55.206Z,11.93
2022-12-03T05:54:24.832Z,13.70
2022-12-03T05:56:51.343Z,12.43
2022-12-03T05:59:17.848Z,12.20
2022-12-03T06:01:44.339Z,13.38
2022-12-03T06:04:10.704Z,11.60
2022-12-03T06:06:37.215Z,11.93
2022-12-03T06:09:04.719Z,12.60
2022-12-03T06:11:34.051Z,10.20
2022-12-03T06:14:01.045Z,12.50
2022-12-03T06:16:27.647Z,12.45
2022-12-03T06:18:54.239Z,12.93
2022-12-03T06:21:20.797Z,11.88
2022-12-03T06:23:47.194Z,12.83
2022-12-03T06:26:14.486Z,11.68
2022-12-03T06:28:46.340Z,11.25
2022-12-03T06:31:13.537Z,11.38
2022-12-03T06:33:40.002Z,12.57
2022-12-03T06:36:06.865Z,11.60
2022-12-03T06:38:33.313Z,11.77
2022-12-03T06:40:59.737Z,10.65
2022-12-03T06:43:26.131Z,12.93
2022-12-03T06:45:52.951Z,11.50
2022-12-03T06:48:19.388Z,12.33
2022-12-03T06:50:45.753Z,12.20
2022-12-03T06:53:12.174Z,10.35
2022-12-03T06:55:38.536Z,12.05
2022-12-03T06:58:04.948Z,11.20
2022-12-03T07:00:31.338Z,10.60
2022-12-03T07:02:57.774Z,11.73
2022-12-03T07:05:24.241Z,11.07
2022-12-03T07:07:52.194Z,11.85
2022-12-03T07:10:19.394Z,11.70
2022-12-03T07:12:45.808Z,10.10
2022-12-03T07:15:12.307Z,10.93
2022-12-03T07:17:39.028Z,12.05
2022-12-03T07:20:06.324Z,10.68
2022-12-03T07:22:33.029Z,9.77
2022-12-03T07:24:59.437Z,11.63
2022-12-03T07:27:25.803Z,10.45
2022-12-03T07:29:52.179Z,10.30
2022-12-03T07:32:18.596Z,10.68
2022-12-03T07:34:45.031Z,10.85
2022-12-03T07:37:11.429Z,10.00
2022-12-03T07:39:37.837Z,10.10
2022-12-03T07:42:04.680Z,11.65
2022-12-03T07:44:31.951Z,11.85
2022-12-03T07:46:58.701Z,11.48
2022-12-03T07:49:26.636Z,11.30
2022-12-03T07:51:57.225Z,11.70
2022-12-03T07:54:24.488Z,11.18
2022-12-03T07:56:51.067Z,10.95
2022-12-03T07:59:17.830Z,11.32
2022-12-03T08:01:44.805Z,10.33
2022-12-03T08:04:12.911Z,12.95
2022-12-03T08:06:39.287Z,11.40
2022-12-03T08:09:05.676Z,10.95
2022-12-03T08:11:32.927Z,11.35
2022-12-03T08:13:59.568Z,12.00
2022-12-03T08:16:26.179Z,11.70
2022-12-03T08:18:54.638Z,10.98
2022-12-03T08:21:21.947Z,12.00
2022-12-03T08:23:48.642Z,12.80
2022-12-03T08:26:22.565Z,10.33
2022-12-03T08:28:49.889Z,11.25
2022-12-03T08:31:28.017Z,12.82
2022-12-03T08:34:13.789Z,12.40
2022-12-03T08:36:40.213Z,11.98
2022-12-03T08:39:33.611Z,10.83
2022-12-03T08:42:30.683Z,12.40
2022-12-03T08:45:19.487Z,12.60
2022-12-03T08:47:46.206Z,12.43
2022-12-03T08:50:40.098Z,13.32
2022-12-03T08:53:27.594Z,13.03
2022-12-03T08:55:59.533Z,11.80
2022-12-03T08:58:43.954Z,12.52
2022-12-03T09:01:10.650Z,11.98
2022-12-03T09:03:48.682Z,12.23
2022-12-03T09:06:15.200Z,10.90
2022-12-03T09:08:41.639Z,12.57
2022-12-03T09:11:08.007Z,12.60
2022-12-03T09:13:34.515Z,13.43
2022-12-03T09:16:00.899Z,11.80
2022-12-03T09:18:27.348Z,13.13
2022-12-03T09:20:53.737Z,11.25
2022-12-03T09:23:20.141Z,11.50
2022-12-03T09:25:46.519Z,12.35
2022-12-03T09:28:12.892Z,12.50
2022-12-03T09:30:39.292Z,11.83
2022-12-03T09:33:05.728Z,12.20
2022-12-03T09:35:32.203Z,11.82
2022-12-03T09:37:58.602Z,12.90
2022-12-03T09:40:24.992Z,11.95
2022-12-03T09:42:52.002Z,12.27
2022-12-03T09:45:18.527Z,11.90
2022-12-03T09:47:47.736Z,11.27
2022-12-03T09:50:18.683Z,10.32
2022-12-03T09:52:45.453Z,10.48
2022-12-03T09:55:16.532Z,9.60
2022-12-03T09:57:42.966Z,11.13
2022-12-03T10:00:24.394Z,11.30
2022-12-03T10:02:54.645Z,8.38
2022-12-03T10:05:22.454Z,8.95
2022-12-03T10:07:50.553Z,9.50
2022-12-03T10:10:20.836Z,10.38
2022-12-03T10:12:48.308Z,7.93
2022-12-03T10:15:17.412Z,8.60
2022-12-03T10:17:46.353Z,8.95
2022-12-03T10:20:15.902Z,9.70
2022-12-03T10:22:42.438Z,8.40
2022-12-03T10:25:16.020Z,9.75
2022-12-03T10:27:42.988Z,8.85
2022-12-03T10:30:22.287Z,10.45
2022-12-03T10:32:50.836Z,10.67
2022-12-03T10:35:23.661Z,10.68
2022-12-03T10:38:22.278Z,12.18
2022-12-03T10:40:49.479Z,10.52
2022-12-03T10:43:18.671Z,10.90
2022-12-03T10:45:46.053Z,10.77
2022-12-03T10:48:17.012Z,11.70
2022-12-03T10:50:48.255Z,9.98
2022-12-03T10:53:14.682Z,11.35
2022-12-03T10:55:43.497Z,10.57
2022-12-03T10:58:20.330Z,10.93
2022-12-03T11:00:47.317Z,12.38
2022-12-03T11:03:37.109Z,9.32
2022-12-03T11:06:03.716Z,11.32
2022-12-03T11:08:35.674Z,11.40
2022-12-03T11:11:16.000Z,10.53
2022-12-03T11:13:45.588Z,12.32
2022-12-03T11:16:12.929Z,9.63
2022-12-03T11:18:39.461Z,10.65
2022-12-03T11:21:08.641Z,10.90
2022-12-03T11:23:44.201Z,10.43
2022-12-03T11:26:28.957Z,9.65
2022-12-03T11:28:57.779Z,9.68
2022-12-03T11:31:41.983Z,9.98
2022-12-03T11:34:20.617Z,10.25
2022-12-03T11:37:11.855Z,9.67
2022-12-03T11:39:50.652Z,8.63
2022-12-03T11:42:26.101Z,8.15
2022-12-03T11:45:05.159Z,9.38
2022-12-03T11:47:53.200Z,7.88
2022-12-03T11:50:21.586Z,7.37
2022-12-03T11:52:53.240Z,8.23
2022-12-03T11:55:29.301Z,6.78
2022-12-03T11:58:01.138Z,8.48
2022-12-03T12:00:27.659Z,7.65
2022-12-03T12:02:56.831Z,6.60
2022-12-03T12:05:28.048Z,7.72
2022-12-03T12:07:55.569Z,7.85
2022-12-03T12:10:48.518Z,6.95
2022-12-03T12:13:30.123Z,7.60
2022-12-03T12:15:57.608Z,8.47
2022-12-03T12:18:55.538Z,7.00
2022-12-03T12:21:44.020Z,7.57
2022-12-03T12:24:46.903Z,7.95
2022-12-03T12:27:37.731Z,7.63
2022-12-03T12:30:06.805Z,8.80
2022-12-03T12:32:47.122Z,9.10
2022-12-03T12:35:25.352Z,8.85
2022-12-03T12:37:58.917Z,8.55
2022-12-03T12:40:31.013Z,9.32
2022-12-03T12:42:58.967Z,10.77
2022-12-03T12:45:36.246Z,10.13
2022-12-03T12:48:16.638Z,8.23
2022-12-03T12:50:45.875Z,8.60
2022-12-03T12:53:24.168Z,9.43
2022-12-03T12:56:01.890Z,8.77
2022-12-03T12:58:31.504Z,7.80
2022-12-03T13:01:00.929Z,8.98
2022-12-03T13:03:32.657Z,8.88
2022-12-03T13:05:59.245Z,9.68
2022-12-03T13:08:32.593Z,9.23
2022-12-03T13:11:01.491Z,9.38
2022-12-03T13:13:44.306Z,10.32
2022-12-03T13:16:23.109Z,9.02
2022-12-03T13:18:54.450Z,11.70
2022-12-03T13:21:36.173Z,10.47
2022-12-03T13:24:10.289Z,9.75
2022-12-03T13:26:39.756Z,10.68
2022-12-03T13:29:15.434Z,9.68
2022-12-03T13:31:49.329Z,11.65
2022-12-03T13:34:22.124Z,11.20
2022-12-03T13:36:55.281Z,11.68
2022-12-03T13:39:31.628Z,10.98
2022-12-03T13:42:31.198Z,10.82
2022-12-03T13:44:57.666Z,11.18
2022-12-03T13:47:24.254Z,12.97
2022-12-03T13:49:58.232Z,12.63
2022-12-03T13:52:26.139Z,14.30
2022-12-03T13:54:55.017Z,14.70
2022-12-03T13:57:21.690Z,11.60
2022-12-03T13:59:48.135Z,13.30
2022-12-03T14:02:14.698Z,10.20
2022-12-03T14:04:41.707Z,11.88
2022-12-03T14:07:08.112Z,11.90
2022-12-03T14:09:34.527Z,12.25
2022-12-03T14:12:19.436Z,12.37
2022-12-03T14:14:45.827Z,11.98
2022-12-03T14:17:12.350Z,13.23
2022-12-03T14:19:38.792Z,11.05
2022-12-03T14:22:07.918Z,12.80
2022-12-03T14:24:34.438Z,13.27
2022-12-03T14:27:00.801Z,12.75
2022-12-03T14:29:27.603Z,11.23
2022-12-03T14:31:54.073Z,10.35
2022-12-03T14:34:20.500Z,11.57
2022-12-03T14:36:46.901Z,10.97
2022-12-03T14:39:13.285Z,10.93
2022-12-03T14:41:58.623Z,9.57
2022-12-03T14:44:25.422Z,10.63
2022-12-03T14:46:56.785Z,10.25
2022-12-03T14:49:23.451Z,9.93
2022-12-03T14:51:49.893Z,10.15
2022-12-03T14:54:16.337Z,8.63
2022-12-03T14:56:42.688Z,9.23
2022-12-03T14:59:09.105Z,8.98
2022-12-03T15:01:35.741Z,11.03
2022-12-03T15:04:02.234Z,9.23
2022-12-03T15:06:28.883Z,9.60
2022-12-03T15:08:55.245Z,9.52
2022-12-03T15:11:21.733Z,8.98
2022-12-03T15:13:48.323Z,9.17
2022-12-03T15:16:14.839Z,9.38
2022-12-03T15:18:41.313Z,8.52
2022-12-03T15:21:08.039Z,9.68
2022-12-03T15:23:34.441Z,10.50
2022-12-03T15:26:00.866Z,10.40
2022-12-03T15:28:27.744Z,10.20
2022-12-03T15:30:54.594Z,11.02
2022-12-03T15:33:21.176Z,11.25
2022-12-03T15:35:47.683Z,13.45
2022-12-03T15:38:14.121Z,11.93
2022-12-03T15:40:40.805Z,13.85
2022-12-03T15:43:08.788Z,12.90
2022-12-03T15:45:35.452Z,12.95
2022-12-03T15:48:02.385Z,12.57
2022-12-03T15:50:29.002Z,12.97
2022-12-03T15:52:55.725Z,14.35
2022-12-03T15:55:22.127Z,13.27
2022-12-03T15:57:49.196Z,13.15
2022-12-03T16:00:17.361Z,16.08
2022-12-03T16:02:49.008Z,13.80
2022-12-03T16:05:18.905Z,14.32
2022-12-03T16:07:45.377Z,13.30
2022-12-03T16:10:12.176Z,13.48
2022-12-03T16:12:38.721Z,14.95
2022-12-03T16:15:05.734Z,13.70
2022-12-03T16:17:32.257Z,15.45
2022-12-03T16:19:58.717Z,14.65
2022-12-03T16:22:25.129Z,16.48
2022-12-03T16:24:51.696Z,13.82
2022-12-03T16:27:21.574Z,15.30
2022-12-03T16:29:50.508Z,16.58
2022-12-03T16:32:17.164Z,15.27
2022-12-03T16:34:43.585Z,15.10
2022-12-03T16:37:11.420Z,14.65
2022-12-03T16:39:37.812Z,15.07
2022-12-03T16:42:05.778Z,14.15
2022-12-03T16:44:54.335Z,14.18
2022-12-03T16:47:22.172Z,14.63
2022-12-03T16:49:49.580Z,14.63
2022-12-03T16:52:16.768Z,13.37
2022-12-03T16:54:43.174Z,13.73
2022-12-03T16:57:09.578Z,15.10
2022-12-03T16:59:36.076Z,13.88
2022-12-03T17:02:02.538Z,15.20
2022-12-03T17:04:29.046Z,15.07
2022-12-03T17:06:55.473Z,13.02
2022-12-03T17:09:21.939Z,13.98
2022-12-03T17:11:48.418Z,15.05
2022-12-03T17:14:14.974Z,15.02
2022-12-03T17:16:41.424Z,14.37
2022-12-03T17:19:07.858Z,15.63
2022-12-03T17:21:35.278Z,16.33
2022-12-03T17:24:01.741Z,16.00
2022-12-03T17:26:28.150Z,13.05
2022-12-03T17:28:54.645Z,17.93
2022-12-03T17:31:21.084Z,14.05
2022-12-03T17:33:47.541Z,14.68
2022-12-03T17:36:13.969Z,15.35
2022-12-03T17:38:40.568Z,15.02
2022-12-03T17:41:07.632Z,15.50
2022-12-03T17:43:34.266Z,14.30
2022-12-03T17:46:00.749Z,16.85
2022-12-03T17:48:31.186Z,13.65
2022-12-03T17:50:58.072Z,16.17
2022-12-03T17:53:24.766Z,16.30
2022-12-03T17:55:51.424Z,15.05
2022-12-03T17:58:17.804Z,14.93
2022-12-03T18:00:44.327Z,28.85
2022-12-03T18:03:10.814Z,18.55
2022-12-03T18:05:37.342Z,15.03
2022-12-03T18:08:03.988Z,15.23
2022-12-03T18:10:30.511Z,14.02
2022-12-03T18:13:01.508Z,15.30
2022-12-03T18:15:29.063Z,14.77
2022-12-03T18:17:55.520Z,34.37
2022-12-03T18:20:21.928Z,17.00
2022-12-03T18:22:48.403Z,18.50
2022-12-03T18:25:14.908Z,14.95
2022-12-03T18:27:41.446Z,16.23
2022-12-03T18:30:08.502Z,14.27
2022-12-03T18:32:35.095Z,14.57
2022-12-03T18:35:01.495Z,16.73
2022-12-03T18:37:29.661Z,14.88
2022-12-03T18:39:57.291Z,14.40
2022-12-03T18:42:24.672Z,14.40
2022-12-03T18:44:55.127Z,14.68
2022-12-03T18:47:24.431Z,13.63
2022-12-03T18:49:51.193Z,14.88
2022-12-03T18:52:20.132Z,15.57
2022-12-03T18:54:47.381Z,13.97
2022-12-03T18:57:14.390Z,14.70
2022-12-03T18:59:41.149Z,13.80
2022-12-03T19:02:08.070Z,15.10
2022-12-03T19:04:34.596Z,14.93
2022-12-03T19:07:01.047Z,14.53
2022-12-03T19:09:27.504Z,14.60
2022-12-03T19:11:54.038Z,16.85
2022-12-03T19:14:20.429Z,15.23
2022-12-03T19:16:46.899Z,14.45
2022-12-03T19:19:13.511Z,13.73
2022-12-03T19:21:39.898Z,11.77
2022-12-03T19:26:55.517Z,13.23
2022-12-03T19:29:23.035Z,13.80
2022-12-03T19:31:50.858Z,14.17
2022-12-03T19:34:18.117Z,14.48
2022-12-03T19:36:44.905Z,18.75
2022-12-03T19:39:11.299Z,14.65
2022-12-03T19:41:37.683Z,13.85
2022-12-03T19:44:10.582Z,13.50
2022-12-03T19:46:37.399Z,13.98
2022-12-03T19:49:04.872Z,14.82
2022-12-03T19:51:35.707Z,13.38
2022-12-03T19:54:06.971Z,12.85
2022-12-03T19:56:33.934Z,12.50
2022-12-03T19:59:00.462Z,13.13
2022-12-03T20:01:29.956Z,14.82
2022-12-03T20:03:58.411Z,15.10
2022-12-03T20:06:27.818Z,12.35
2022-12-03T20:08:59.492Z,13.87
2022-12-03T20:11:31.430Z,13.52
2022-12-03T20:14:00.472Z,14.02
2022-12-03T20:16:27.914Z,13.80
2022-12-03T20:18:59.907Z,14.25
2022-12-03T20:21:28.853Z,15.10
2022-12-03T20:23:55.219Z,12.32
2022-12-03T20:26:21.928Z,18.08
2022-12-03T20:28:49.034Z,14.32
2022-12-03T20:31:20.714Z,13.60
2022-12-03T20:33:52.147Z,14.10
2022-12-03T20:36:20.821Z,14.18
2022-12-03T20:38:47.344Z,26.98
2022-12-03T20:41:16.879Z,15.43
2022-12-03T20:43:43.250Z,16.35
2022-12-03T20:46:39.322Z,14.23
2022-12-03T20:49:05.818Z,15.43
2022-12-03T20:51:32.688Z,15.10
2022-12-03T20:54:01.037Z,12.63
2022-12-03T20:56:31.227Z,12.55
2022-12-03T20:59:05.603Z,13.53
2022-12-03T21:01:32.560Z,12.43
2022-12-03T21:03:59.144Z,12.98
2022-12-03T21:06:27.955Z,14.27
2022-12-03T21:08:55.741Z,12.45
2022-12-03T21:11:24.966Z,12.97
2022-12-03T21:13:53.440Z,13.00
2022-12-03T21:16:45.412Z,13.55
2022-12-03T21:19:10.680Z,13.40
2022-12-03T21:21:37.225Z,13.85
2022-12-03T21:24:03.842Z,12.20
2022-12-03T21:26:30.333Z,14.20
2022-12-03T21:28:56.712Z,13.73
2022-12-03T21:31:25.889Z,14.98
2022-12-03T21:33:54.099Z,13.85
2022-12-03T21:36:20.792Z,13.70
2022-12-03T21:38:48.204Z,13.88
2022-12-03T21:41:15.004Z,13.57
2022-12-03T21:43:42.465Z,12.75
2022-12-03T21:47:09.618Z,14.70
2022-12-03T21:48:59.417Z,13.33
2022-12-03T21:51:25.901Z,14.77
2022-12-03T21:53:53.148Z,12.40
2022-12-03T21:56:19.706Z,13.93
2022-12-03T21:58:46.231Z,13.55
2022-12-03T22:01:19.139Z,13.07
2022-12-03T22:03:46.259Z,12.15
2022-12-03T22:06:13.681Z,12.20
2022-12-03T22:08:40.663Z,12.10
2022-12-03T22:11:09.883Z,12.40
2022-12-03T22:13:38.772Z,13.30
2022-12-03T22:16:14.298Z,13.82
2022-12-03T22:18:40.817Z,14.00
2022-12-03T22:21:09.622Z,14.43
2022-12-03T22:23:36.395Z,14.50
2022-12-03T22:26:09.011Z,13.73
2022-12-03T22:28:35.404Z,14.60
2022-12-03T22:31:09.230Z,13.85
2022-12-03T22:33:36.799Z,13.82
2022-12-03T22:36:13.379Z,12.80
2022-12-03T22:38:44.699Z,13.57
2022-12-03T22:41:13.148Z,13.23
2022-12-03T22:43:40.105Z,14.27
2022-12-03T22:46:10.308Z,13.30
2022-12-03T22:48:37.053Z,12.82
2022-12-03T22:51:04.499Z,14.40
2022-12-03T22:53:31.013Z,12.60
2022-12-03T22:55:59.423Z,13.02
2022-12-03T22:58:27.013Z,12.75
2022-12-03T23:00:56.242Z,13.95
2022-12-03T23:03:26.422Z,14.80
2022-12-03T23:05:52.933Z,13.88
2022-12-03T23:08:20.857Z,13.30
2022-12-03T23:10:49.668Z,14.02
2022-12-03T23:13:16.756Z,15.05
2022-12-03T23:15:50.363Z,13.17
2022-12-03T23:18:18.410Z,12.38
2022-12-03T23:20:47.614Z,15.05
2022-12-03T23:23:15.054Z,13.80
2022-12-03T23:25:41.819Z,14.57
2022-12-03T23:28:09.136Z,14.33
2022-12-03T23:30:39.495Z,15.38
2022-12-03T23:33:06.543Z,14.30
2022-12-03T23:35:33.307Z,14.63
2022-12-03T23:37:59.779Z,15.68
2022-12-03T23:40:26.212Z,15.93
2022-12-03T23:42:52.641Z,14.80
2022-12-03T23:45:19.119Z,17.95
2022-12-03T23:47:45.530Z,14.40
2022-12-03T23:50:12.152Z,16.95
2022-12-03T23:52:38.624Z,14.43
2022-12-03T23:55:05.483Z,15.10
2022-12-03T23:57:31.873Z,15.32
2022-12-03T23:59:58.325Z,14.75
